sensor_id;sensor_type;location;lat;lon;timestamp;P1;durP1;ratioP1;P2;durP2;ratioP2
735;SDS011;352;48.626;9.238;2022-07-19T00:00:00;4.70;;;4.40;;
735;SDS011;352;48.626;9.238;2022-07-19T00:02:29;4.60;;;4.20;;
735;SDS011;352;48.626;9.238;2022-07-19T00:04:57;5.70;;;4.60;;
735;SDS011;352;48.626;9.238;2022-07-19T00:07:24;4.90;;;4.60;;
735;SDS011;352;48.626;9.238;2022-07-19T00:09:51;5.43;;;4.93;;
735;SDS011;352;48.626;9.238;2022-07-19T00:12:17;4.80;;;4.40;;
735;SDS011;352;48.626;9.238;2022-07-19T00:14:44;5.53;;;5.03;;
735;SDS011;352;48.626;9.238;2022-07-19T00:17:11;5.50;;;5.00;;
735;SDS011;352;48.626;9.238;2022-07-19T00:19:38;4.23;;;4.03;;
735;SDS011;352;48.626;9.238;2022-07-19T00:22:06;4.40;;;4.00;;
735;SDS011;352;48.626;9.238;2022-07-19T00:24:33;5.07;;;4.40;;
735;SDS011;352;48.626;9.238;2022-07-19T00:26:59;5.80;;;4.70;;
735;SDS011;352;48.626;9.238;2022-07-19T00:29:26;6.43;;;5.40;;
735;SDS011;352;48.626;9.238;2022-07-19T00:31:53;5.37;;;4.97;;
735;SDS011;352;48.626;9.238;2022-07-19T00:34:20;6.53;;;4.83;;
735;SDS011;352;48.626;9.238;2022-07-19T00:36:46;5.13;;;4.63;;
735;SDS011;352;48.626;9.238;2022-07-19T00:39:14;5.03;;;4.63;;
735;SDS011;352;48.626;9.238;2022-07-19T00:41:42;5.97;;;5.37;;
735;SDS011;352;48.626;9.238;2022-07-19T00:44:09;5.40;;;5.00;;
735;SDS011;352;48.626;9.238;2022-07-19T00:46:37;6.40;;;5.90;;
735;SDS011;352;48.626;9.238;2022-07-19T00:49:04;6.70;;;4.60;;
735;SDS011;352;48.626;9.238;2022-07-19T00:51:33;6.97;;;5.10;;
735;SDS011;352;48.626;9.238;2022-07-19T00:54:01;5.13;;;4.63;;
735;SDS011;352;48.626;9.238;2022-07-19T00:56:29;5.10;;;4.70;;
735;SDS011;352;48.626;9.238;2022-07-19T00:58:59;4.93;;;4.27;;
735;SDS011;352;48.626;9.238;2022-07-19T01:01:27;5.00;;;4.60;;
735;SDS011;352;48.626;9.238;2022-07-19T01:03:54;6.07;;;5.57;;
735;SDS011;352;48.626;9.238;2022-07-19T01:06:22;4.70;;;4.40;;
735;SDS011;352;48.626;9.238;2022-07-19T01:08:49;4.63;;;4.33;;
735;SDS011;352;48.626;9.238;2022-07-19T01:11:16;4.83;;;4.43;;
735;SDS011;352;48.626;9.238;2022-07-19T01:13:44;5.63;;;5.03;;
735;SDS011;352;48.626;9.238;2022-07-19T01:16:11;5.37;;;4.97;;
735;SDS011;352;48.626;9.238;2022-07-19T01:18:38;4.60;;;4.20;;
735;SDS011;352;48.626;9.238;2022-07-19T01:21:05;5.27;;;4.87;;
735;SDS011;352;48.626;9.238;2022-07-19T01:23:34;5.17;;;4.67;;
735;SDS011;352;48.626;9.238;2022-07-19T01:26:01;5.13;;;4.67;;
735;SDS011;352;48.626;9.238;2022-07-19T01:28:28;5.10;;;4.80;;
735;SDS011;352;48.626;9.238;2022-07-19T01:30:55;4.37;;;4.07;;
735;SDS011;352;48.626;9.238;2022-07-19T01:33:21;4.93;;;4.53;;
735;SDS011;352;48.626;9.238;2022-07-19T01:35:48;4.83;;;4.47;;
735;SDS011;352;48.626;9.238;2022-07-19T01:38:15;5.10;;;4.60;;
735;SDS011;352;48.626;9.238;2022-07-19T01:40:43;4.70;;;4.40;;
735;SDS011;352;48.626;9.238;2022-07-19T01:43:09;5.40;;;4.90;;
735;SDS011;352;48.626;9.238;2022-07-19T01:45:36;4.57;;;4.27;;
735;SDS011;352;48.626;9.238;2022-07-19T01:48:03;5.10;;;4.70;;
735;SDS011;352;48.626;9.238;2022-07-19T01:50:31;5.53;;;5.03;;
735;SDS011;352;48.626;9.238;2022-07-19T01:52:57;5.20;;;4.80;;
735;SDS011;352;48.626;9.238;2022-07-19T01:55:24;5.23;;;4.60;;
735;SDS011;352;48.626;9.238;2022-07-19T01:57:52;5.50;;;4.90;;
735;SDS011;352;48.626;9.238;2022-07-19T02:00:19;5.13;;;4.73;;
735;SDS011;352;48.626;9.238;2022-07-19T02:02:45;5.07;;;4.67;;
735;SDS011;352;48.626;9.238;2022-07-19T02:05:12;4.83;;;4.40;;
735;SDS011;352;48.626;9.238;2022-07-19T02:07:39;6.03;;;4.63;;
735;SDS011;352;48.626;9.238;2022-07-19T02:10:06;4.70;;;4.30;;
735;SDS011;352;48.626;9.238;2022-07-19T02:12:34;5.60;;;5.20;;
735;SDS011;352;48.626;9.238;2022-07-19T02:15:02;5.07;;;4.67;;
735;SDS011;352;48.626;9.238;2022-07-19T02:17:29;5.47;;;4.90;;
735;SDS011;352;48.626;9.238;2022-07-19T02:19:56;5.70;;;5.20;;
735;SDS011;352;48.626;9.238;2022-07-19T02:22:23;5.53;;;5.03;;
735;SDS011;352;48.626;9.238;2022-07-19T02:24:50;5.27;;;4.87;;
735;SDS011;352;48.626;9.238;2022-07-19T02:27:16;5.40;;;4.70;;
735;SDS011;352;48.626;9.238;2022-07-19T02:29:44;5.63;;;4.63;;
735;SDS011;352;48.626;9.238;2022-07-19T02:32:12;4.80;;;4.40;;
735;SDS011;352;48.626;9.238;2022-07-19T02:34:39;5.60;;;5.10;;
735;SDS011;352;48.626;9.238;2022-07-19T02:37:06;5.43;;;5.03;;
735;SDS011;352;48.626;9.238;2022-07-19T02:39:33;5.10;;;4.70;;
735;SDS011;352;48.626;9.238;2022-07-19T02:42:00;4.90;;;4.60;;
735;SDS011;352;48.626;9.238;2022-07-19T02:44:26;5.23;;;4.80;;
735;SDS011;352;48.626;9.238;2022-07-19T02:46:53;5.10;;;4.67;;
735;SDS011;352;48.626;9.238;2022-07-19T02:49:21;5.70;;;5.10;;
735;SDS011;352;48.626;9.238;2022-07-19T02:51:48;5.10;;;4.80;;
735;SDS011;352;48.626;9.238;2022-07-19T02:54:15;5.63;;;5.13;;
735;SDS011;352;48.626;9.238;2022-07-19T02:56:41;5.17;;;4.67;;
735;SDS011;352;48.626;9.238;2022-07-19T02:59:08;5.27;;;4.87;;
735;SDS011;352;48.626;9.238;2022-07-19T03:01:35;5.93;;;5.53;;
735;SDS011;352;48.626;9.238;2022-07-19T03:04:01;6.23;;;5.73;;
735;SDS011;352;48.626;9.238;2022-07-19T03:06:30;5.93;;;5.30;;
735;SDS011;352;48.626;9.238;2022-07-19T03:08:57;5.50;;;4.77;;
735;SDS011;352;48.626;9.238;2022-07-19T03:11:23;6.07;;;5.47;;
735;SDS011;352;48.626;9.238;2022-07-19T03:13:50;6.60;;;5.17;;
735;SDS011;352;48.626;9.238;2022-07-19T03:16:17;5.73;;;5.30;;
735;SDS011;352;48.626;9.238;2022-07-19T03:18:43;5.50;;;5.00;;
735;SDS011;352;48.626;9.238;2022-07-19T03:21:10;5.47;;;4.97;;
735;SDS011;352;48.626;9.238;2022-07-19T03:23:38;4.90;;;4.57;;
735;SDS011;352;48.626;9.238;2022-07-19T03:26:05;5.40;;;5.00;;
735;SDS011;352;48.626;9.238;2022-07-19T03:28:32;5.70;;;5.30;;
735;SDS011;352;48.626;9.238;2022-07-19T03:30:59;5.77;;;5.30;;
735;SDS011;352;48.626;9.238;2022-07-19T03:33:26;5.27;;;4.87;;
735;SDS011;352;48.626;9.238;2022-07-19T03:35:54;5.60;;;5.20;;
735;SDS011;352;48.626;9.238;2022-07-19T03:38:21;5.73;;;5.33;;
735;SDS011;352;48.626;9.238;2022-07-19T03:40:49;4.53;;;4.23;;
735;SDS011;352;48.626;9.238;2022-07-19T03:43:16;5.13;;;4.73;;
735;SDS011;352;48.626;9.238;2022-07-19T03:45:44;5.30;;;5.00;;
735;SDS011;352;48.626;9.238;2022-07-19T03:48:11;7.30;;;5.17;;
735;SDS011;352;48.626;9.238;2022-07-19T03:50:38;5.37;;;5.07;;
735;SDS011;352;48.626;9.238;2022-07-19T03:53:05;5.97;;;5.37;;
735;SDS011;352;48.626;9.238;2022-07-19T03:55:32;6.00;;;5.50;;
735;SDS011;352;48.626;9.238;2022-07-19T03:58:01;6.60;;;4.97;;
735;SDS011;352;48.626;9.238;2022-07-19T04:00:27;5.20;;;4.90;;
735;SDS011;352;48.626;9.238;2022-07-19T04:02:54;5.50;;;5.10;;
735;SDS011;352;48.626;9.238;2022-07-19T04:05:21;5.30;;;4.80;;
735;SDS011;352;48.626;9.238;2022-07-19T04:07:48;5.77;;;5.27;;
735;SDS011;352;48.626;9.238;2022-07-19T04:10:14;6.50;;;5.90;;
735;SDS011;352;48.626;9.238;2022-07-19T04:12:41;5.40;;;5.00;;
735;SDS011;352;48.626;9.238;2022-07-19T04:15:09;5.70;;;5.20;;
735;SDS011;352;48.626;9.238;2022-07-19T04:17:36;5.93;;;5.33;;
735;SDS011;352;48.626;9.238;2022-07-19T04:20:04;6.20;;;5.47;;
735;SDS011;352;48.626;9.238;2022-07-19T04:22:31;5.40;;;4.90;;
735;SDS011;352;48.626;9.238;2022-07-19T04:24:58;5.53;;;5.13;;
735;SDS011;352;48.626;9.238;2022-07-19T04:27:25;6.57;;;5.97;;
735;SDS011;352;48.626;9.238;2022-07-19T04:29:52;6.23;;;5.73;;
735;SDS011;352;48.626;9.238;2022-07-19T04:32:20;6.60;;;5.90;;
735;SDS011;352;48.626;9.238;2022-07-19T04:34:47;5.77;;;5.27;;
735;SDS011;352;48.626;9.238;2022-07-19T04:37:14;6.67;;;6.17;;
735;SDS011;352;48.626;9.238;2022-07-19T04:39:41;6.30;;;5.73;;
735;SDS011;352;48.626;9.238;2022-07-19T04:42:08;6.37;;;5.87;;
735;SDS011;352;48.626;9.238;2022-07-19T04:44:34;5.80;;;5.40;;
735;SDS011;352;48.626;9.238;2022-07-19T04:47:01;5.47;;;4.97;;
735;SDS011;352;48.626;9.238;2022-07-19T04:49:29;5.83;;;5.43;;
735;SDS011;352;48.626;9.238;2022-07-19T04:51:56;5.93;;;5.43;;
735;SDS011;352;48.626;9.238;2022-07-19T04:54:23;5.50;;;5.10;;
735;SDS011;352;48.626;9.238;2022-07-19T04:56:49;6.63;;;5.40;;
735;SDS011;352;48.626;9.238;2022-07-19T04:59:16;6.60;;;6.00;;
735;SDS011;352;48.626;9.238;2022-07-19T05:01:43;5.83;;;5.43;;
735;SDS011;352;48.626;9.238;2022-07-19T05:04:10;6.20;;;5.70;;
735;SDS011;352;48.626;9.238;2022-07-19T05:06:38;6.10;;;5.60;;
735;SDS011;352;48.626;9.238;2022-07-19T05:09:05;5.90;;;5.50;;
735;SDS011;352;48.626;9.238;2022-07-19T05:11:31;6.53;;;6.00;;
735;SDS011;352;48.626;9.238;2022-07-19T05:13:58;5.83;;;5.33;;
735;SDS011;352;48.626;9.238;2022-07-19T05:16:25;6.00;;;5.60;;
735;SDS011;352;48.626;9.238;2022-07-19T05:18:52;5.87;;;5.47;;
735;SDS011;352;48.626;9.238;2022-07-19T05:21:19;6.00;;;5.50;;
735;SDS011;352;48.626;9.238;2022-07-19T05:23:47;5.77;;;5.37;;
735;SDS011;352;48.626;9.238;2022-07-19T05:26:13;5.43;;;5.13;;
735;SDS011;352;48.626;9.238;2022-07-19T05:28:40;6.20;;;5.67;;
735;SDS011;352;48.626;9.238;2022-07-19T05:31:07;5.93;;;5.53;;
735;SDS011;352;48.626;9.238;2022-07-19T05:33:34;5.73;;;5.33;;
735;SDS011;352;48.626;9.238;2022-07-19T05:36:01;6.37;;;5.83;;
735;SDS011;352;48.626;9.238;2022-07-19T05:38:28;6.77;;;6.33;;
735;SDS011;352;48.626;9.238;2022-07-19T05:41:00;6.97;;;6.30;;
735;SDS011;352;48.626;9.238;2022-07-19T05:43:27;6.70;;;6.30;;
735;SDS011;352;48.626;9.238;2022-07-19T05:45:54;7.13;;;6.50;;
735;SDS011;352;48.626;9.238;2022-07-19T05:48:21;7.30;;;6.63;;
735;SDS011;352;48.626;9.238;2022-07-19T05:50:48;6.37;;;5.87;;
735;SDS011;352;48.626;9.238;2022-07-19T05:53:15;6.30;;;5.67;;
735;SDS011;352;48.626;9.238;2022-07-19T05:55:43;6.47;;;5.87;;
735;SDS011;352;48.626;9.238;2022-07-19T05:58:12;6.27;;;5.77;;
735;SDS011;352;48.626;9.238;2022-07-19T06:00:38;6.77;;;6.27;;
735;SDS011;352;48.626;9.238;2022-07-19T06:03:26;6.47;;;5.97;;
735;SDS011;352;48.626;9.238;2022-07-19T06:05:53;6.77;;;6.10;;
735;SDS011;352;48.626;9.238;2022-07-19T06:08:20;6.33;;;5.93;;
735;SDS011;352;48.626;9.238;2022-07-19T06:10:47;4.97;;;4.77;;
735;SDS011;352;48.626;9.238;2022-07-19T06:13:15;6.63;;;6.03;;
735;SDS011;352;48.626;9.238;2022-07-19T06:15:42;7.13;;;6.63;;
735;SDS011;352;48.626;9.238;2022-07-19T06:18:09;6.20;;;5.80;;
735;SDS011;352;48.626;9.238;2022-07-19T06:20:35;6.23;;;5.80;;
735;SDS011;352;48.626;9.238;2022-07-19T06:23:02;9.40;;;6.80;;
735;SDS011;352;48.626;9.238;2022-07-19T06:25:29;6.03;;;5.67;;
735;SDS011;352;48.626;9.238;2022-07-19T06:27:56;5.90;;;5.07;;
735;SDS011;352;48.626;9.238;2022-07-19T06:30:24;7.20;;;6.53;;
735;SDS011;352;48.626;9.238;2022-07-19T06:32:50;6.47;;;6.07;;
735;SDS011;352;48.626;9.238;2022-07-19T06:35:17;6.23;;;5.80;;
735;SDS011;352;48.626;9.238;2022-07-19T06:37:44;5.53;;;5.10;;
735;SDS011;352;48.626;9.238;2022-07-19T06:40:11;5.83;;;5.43;;
735;SDS011;352;48.626;9.238;2022-07-19T06:42:38;6.10;;;5.50;;
735;SDS011;352;48.626;9.238;2022-07-19T06:45:05;6.67;;;6.07;;
735;SDS011;352;48.626;9.238;2022-07-19T06:47:33;8.33;;;7.63;;
735;SDS011;352;48.626;9.238;2022-07-19T06:50:00;6.60;;;6.10;;
735;SDS011;352;48.626;9.238;2022-07-19T06:52:27;5.80;;;5.40;;
735;SDS011;352;48.626;9.238;2022-07-19T06:54:54;6.47;;;5.87;;
735;SDS011;352;48.626;9.238;2022-07-19T06:57:21;6.03;;;5.53;;
735;SDS011;352;48.626;9.238;2022-07-19T06:59:47;5.57;;;5.17;;
735;SDS011;352;48.626;9.238;2022-07-19T07:02:14;5.33;;;4.93;;
735;SDS011;352;48.626;9.238;2022-07-19T07:04:42;8.63;;;5.20;;
735;SDS011;352;48.626;9.238;2022-07-19T07:07:09;6.90;;;4.70;;
735;SDS011;352;48.626;9.238;2022-07-19T07:09:35;5.40;;;5.10;;
735;SDS011;352;48.626;9.238;2022-07-19T07:12:02;6.17;;;5.57;;
735;SDS011;352;48.626;9.238;2022-07-19T07:14:29;15.30;;;5.50;;
735;SDS011;352;48.626;9.238;2022-07-19T07:16:56;5.43;;;5.00;;
735;SDS011;352;48.626;9.238;2022-07-19T07:19:23;5.33;;;4.87;;
735;SDS011;352;48.626;9.238;2022-07-19T07:21:51;5.83;;;5.23;;
735;SDS011;352;48.626;9.238;2022-07-19T07:24:17;6.00;;;5.50;;
735;SDS011;352;48.626;9.238;2022-07-19T07:26:44;5.80;;;5.30;;
735;SDS011;352;48.626;9.238;2022-07-19T07:29:11;5.53;;;5.13;;
735;SDS011;352;48.626;9.238;2022-07-19T07:31:38;7.03;;;5.30;;
735;SDS011;352;48.626;9.238;2022-07-19T07:34:05;5.20;;;4.90;;
735;SDS011;352;48.626;9.238;2022-07-19T07:36:32;5.30;;;4.80;;
735;SDS011;352;48.626;9.238;2022-07-19T07:39:00;7.53;;;4.60;;
735;SDS011;352;48.626;9.238;2022-07-19T07:41:27;5.80;;;4.97;;
735;SDS011;352;48.626;9.238;2022-07-19T07:43:53;5.30;;;4.77;;
735;SDS011;352;48.626;9.238;2022-07-19T07:46:21;5.80;;;5.20;;
735;SDS011;352;48.626;9.238;2022-07-19T07:48:47;6.00;;;5.50;;
735;SDS011;352;48.626;9.238;2022-07-19T07:51:14;5.70;;;5.20;;
735;SDS011;352;48.626;9.238;2022-07-19T07:53:41;5.50;;;5.03;;
735;SDS011;352;48.626;9.238;2022-07-19T07:56:09;5.60;;;5.00;;
735;SDS011;352;48.626;9.238;2022-07-19T07:58:35;5.50;;;5.00;;
735;SDS011;352;48.626;9.238;2022-07-19T08:01:02;4.73;;;4.43;;
735;SDS011;352;48.626;9.238;2022-07-19T08:03:29;4.40;;;3.97;;
735;SDS011;352;48.626;9.238;2022-07-19T08:05:56;6.73;;;4.37;;
735;SDS011;352;48.626;9.238;2022-07-19T08:08:23;6.23;;;5.80;;
735;SDS011;352;48.626;9.238;2022-07-19T08:10:51;4.37;;;4.07;;
735;SDS011;352;48.626;9.238;2022-07-19T08:13:20;4.87;;;4.20;;
735;SDS011;352;48.626;9.238;2022-07-19T08:15:48;5.30;;;4.90;;
735;SDS011;352;48.626;9.238;2022-07-19T08:18:15;5.50;;;4.47;;
735;SDS011;352;48.626;9.238;2022-07-19T08:20:42;4.73;;;4.33;;
735;SDS011;352;48.626;9.238;2022-07-19T08:23:09;5.07;;;4.50;;
735;SDS011;352;48.626;9.238;2022-07-19T08:25:36;4.90;;;4.07;;
735;SDS011;352;48.626;9.238;2022-07-19T08:28:03;5.40;;;4.10;;
735;SDS011;352;48.626;9.238;2022-07-19T08:30:31;4.30;;;3.80;;
735;SDS011;352;48.626;9.238;2022-07-19T08:33:00;4.03;;;3.53;;
735;SDS011;352;48.626;9.238;2022-07-19T08:35:31;11.93;;;4.00;;
735;SDS011;352;48.626;9.238;2022-07-19T08:37:58;5.03;;;3.50;;
735;SDS011;352;48.626;9.238;2022-07-19T08:40:25;6.63;;;3.73;;
735;SDS011;352;48.626;9.238;2022-07-19T08:42:52;3.77;;;3.47;;
735;SDS011;352;48.626;9.238;2022-07-19T08:45:20;3.60;;;3.30;;
735;SDS011;352;48.626;9.238;2022-07-19T08:47:50;4.30;;;3.27;;
735;SDS011;352;48.626;9.238;2022-07-19T08:50:17;3.83;;;3.53;;
735;SDS011;352;48.626;9.238;2022-07-19T08:52:44;6.57;;;4.20;;
735;SDS011;352;48.626;9.238;2022-07-19T08:55:11;3.47;;;3.20;;
735;SDS011;352;48.626;9.238;2022-07-19T08:57:38;3.47;;;3.27;;
735;SDS011;352;48.626;9.238;2022-07-19T09:00:22;4.07;;;3.70;;
735;SDS011;352;48.626;9.238;2022-07-19T09:02:54;3.53;;;3.30;;
735;SDS011;352;48.626;9.238;2022-07-19T09:05:23;3.53;;;3.23;;
735;SDS011;352;48.626;9.238;2022-07-19T09:08:01;6.70;;;3.23;;
735;SDS011;352;48.626;9.238;2022-07-19T09:10:30;6.93;;;3.10;;
735;SDS011;352;48.626;9.238;2022-07-19T09:12:58;3.20;;;3.00;;
735;SDS011;352;48.626;9.238;2022-07-19T09:15:36;5.90;;;3.43;;
735;SDS011;352;48.626;9.238;2022-07-19T09:18:08;5.07;;;3.70;;
735;SDS011;352;48.626;9.238;2022-07-19T09:20:37;3.43;;;3.13;;
735;SDS011;352;48.626;9.238;2022-07-19T09:23:04;3.07;;;2.87;;
735;SDS011;352;48.626;9.238;2022-07-19T09:25:32;3.67;;;3.30;;
735;SDS011;352;48.626;9.238;2022-07-19T09:28:03;4.00;;;3.53;;
735;SDS011;352;48.626;9.238;2022-07-19T09:30:31;3.87;;;3.57;;
735;SDS011;352;48.626;9.238;2022-07-19T09:33:07;4.50;;;3.43;;
735;SDS011;352;48.626;9.238;2022-07-19T09:35:37;3.33;;;3.03;;
735;SDS011;352;48.626;9.238;2022-07-19T09:38:16;6.27;;;3.23;;
735;SDS011;352;48.626;9.238;2022-07-19T09:40:44;4.27;;;3.30;;
735;SDS011;352;48.626;9.238;2022-07-19T09:43:11;3.37;;;3.17;;
735;SDS011;352;48.626;9.238;2022-07-19T09:45:37;4.00;;;3.70;;
735;SDS011;352;48.626;9.238;2022-07-19T09:48:04;4.17;;;3.70;;
735;SDS011;352;48.626;9.238;2022-07-19T09:50:33;4.23;;;3.20;;
735;SDS011;352;48.626;9.238;2022-07-19T09:53:01;4.67;;;3.67;;
735;SDS011;352;48.626;9.238;2022-07-19T09:55:29;3.33;;;3.13;;
735;SDS011;352;48.626;9.238;2022-07-19T09:57:57;11.00;;;3.70;;
735;SDS011;352;48.626;9.238;2022-07-19T10:00:26;8.30;;;3.73;;
735;SDS011;352;48.626;9.238;2022-07-19T10:02:54;3.90;;;2.83;;
735;SDS011;352;48.626;9.238;2022-07-19T10:05:22;4.17;;;2.97;;
735;SDS011;352;48.626;9.238;2022-07-19T10:07:51;3.60;;;3.30;;
735;SDS011;352;48.626;9.238;2022-07-19T10:10:19;3.77;;;3.13;;
735;SDS011;352;48.626;9.238;2022-07-19T10:12:47;3.50;;;3.20;;
735;SDS011;352;48.626;9.238;2022-07-19T10:15:16;3.30;;;2.97;;
735;SDS011;352;48.626;9.238;2022-07-19T10:17:47;4.90;;;3.63;;
735;SDS011;352;48.626;9.238;2022-07-19T10:20:21;3.50;;;2.70;;
735;SDS011;352;48.626;9.238;2022-07-19T10:22:51;3.43;;;3.07;;
735;SDS011;352;48.626;9.238;2022-07-19T10:25:19;3.30;;;3.10;;
735;SDS011;352;48.626;9.238;2022-07-19T10:27:46;4.00;;;3.50;;
735;SDS011;352;48.626;9.238;2022-07-19T10:30:19;3.50;;;3.20;;
735;SDS011;352;48.626;9.238;2022-07-19T10:32:48;3.33;;;3.13;;
735;SDS011;352;48.626;9.238;2022-07-19T10:35:17;6.43;;;3.03;;
735;SDS011;352;48.626;9.238;2022-07-19T10:37:47;5.00;;;3.07;;
735;SDS011;352;48.626;9.238;2022-07-19T10:43:07;3.10;;;2.77;;
735;SDS011;352;48.626;9.238;2022-07-19T10:45:34;4.30;;;3.20;;
735;SDS011;352;48.626;9.238;2022-07-19T10:48:07;3.53;;;3.23;;
735;SDS011;352;48.626;9.238;2022-07-19T10:50:45;2.93;;;2.73;;
735;SDS011;352;48.626;9.238;2022-07-19T10:56:30;7.37;;;6.63;;
735;SDS011;352;48.626;9.238;2022-07-19T10:59:00;4.63;;;4.10;;
735;SDS011;352;48.626;9.238;2022-07-19T11:01:29;2.97;;;2.77;;
735;SDS011;352;48.626;9.238;2022-07-19T11:06:50;3.63;;;3.00;;
735;SDS011;352;48.626;9.238;2022-07-19T11:09:17;4.43;;;3.60;;
735;SDS011;352;48.626;9.238;2022-07-19T11:11:45;5.40;;;3.50;;
735;SDS011;352;48.626;9.238;2022-07-19T11:14:12;3.17;;;2.97;;
735;SDS011;352;48.626;9.238;2022-07-19T11:16:39;4.97;;;3.40;;
735;SDS011;352;48.626;9.238;2022-07-19T11:19:08;5.17;;;3.00;;
735;SDS011;352;48.626;9.238;2022-07-19T11:21:35;3.70;;;3.40;;
735;SDS011;352;48.626;9.238;2022-07-19T11:24:03;4.03;;;3.30;;
735;SDS011;352;48.626;9.238;2022-07-19T11:26:34;3.67;;;3.37;;
735;SDS011;352;48.626;9.238;2022-07-19T11:29:04;3.70;;;3.40;;
735;SDS011;352;48.626;9.238;2022-07-19T11:31:31;4.63;;;3.40;;
735;SDS011;352;48.626;9.238;2022-07-19T11:33:59;6.37;;;3.73;;
735;SDS011;352;48.626;9.238;2022-07-19T11:36:26;4.97;;;3.60;;
735;SDS011;352;48.626;9.238;2022-07-19T11:38:54;4.27;;;3.57;;
735;SDS011;352;48.626;9.238;2022-07-19T11:41:22;3.70;;;3.40;;
735;SDS011;352;48.626;9.238;2022-07-19T11:43:53;5.87;;;3.70;;
735;SDS011;352;48.626;9.238;2022-07-19T11:46:22;6.73;;;3.40;;
735;SDS011;352;48.626;9.238;2022-07-19T11:48:54;4.30;;;3.90;;
735;SDS011;352;48.626;9.238;2022-07-19T11:51:22;3.90;;;3.50;;
735;SDS011;352;48.626;9.238;2022-07-19T11:53:50;4.30;;;3.77;;
735;SDS011;352;48.626;9.238;2022-07-19T11:56:19;5.10;;;3.90;;
735;SDS011;352;48.626;9.238;2022-07-19T11:58:47;4.10;;;3.70;;
735;SDS011;352;48.626;9.238;2022-07-19T12:01:14;4.13;;;3.83;;
735;SDS011;352;48.626;9.238;2022-07-19T12:03:54;5.80;;;3.83;;
735;SDS011;352;48.626;9.238;2022-07-19T12:06:35;3.93;;;3.27;;
735;SDS011;352;48.626;9.238;2022-07-19T12:09:04;3.73;;;3.43;;
735;SDS011;352;48.626;9.238;2022-07-19T12:11:37;6.20;;;3.40;;
735;SDS011;352;48.626;9.238;2022-07-19T12:14:18;4.20;;;3.90;;
735;SDS011;352;48.626;9.238;2022-07-19T12:16:48;3.73;;;3.40;;
735;SDS011;352;48.626;9.238;2022-07-19T12:19:15;4.37;;;3.97;;
735;SDS011;352;48.626;9.238;2022-07-19T12:21:45;4.60;;;3.67;;
735;SDS011;352;48.626;9.238;2022-07-19T12:24:13;4.30;;;3.80;;
735;SDS011;352;48.626;9.238;2022-07-19T12:26:42;5.90;;;4.03;;
735;SDS011;352;48.626;9.238;2022-07-19T12:29:18;3.60;;;3.30;;
735;SDS011;352;48.626;9.238;2022-07-19T12:31:48;4.23;;;3.80;;
735;SDS011;352;48.626;9.238;2022-07-19T12:34:16;7.13;;;3.70;;
735;SDS011;352;48.626;9.238;2022-07-19T12:36:43;3.63;;;3.30;;
735;SDS011;352;48.626;9.238;2022-07-19T12:39:18;7.37;;;3.37;;
735;SDS011;352;48.626;9.238;2022-07-19T12:41:59;5.73;;;3.53;;
735;SDS011;352;48.626;9.238;2022-07-19T12:44:29;4.30;;;3.20;;
735;SDS011;352;48.626;9.238;2022-07-19T12:46:58;6.53;;;3.40;;
735;SDS011;352;48.626;9.238;2022-07-19T12:49:25;3.87;;;3.53;;
735;SDS011;352;48.626;9.238;2022-07-19T12:52:05;5.40;;;3.80;;
735;SDS011;352;48.626;9.238;2022-07-19T12:54:32;5.50;;;3.90;;
735;SDS011;352;48.626;9.238;2022-07-19T12:56:59;4.17;;;3.13;;
735;SDS011;352;48.626;9.238;2022-07-19T12:59:25;3.70;;;2.90;;
735;SDS011;352;48.626;9.238;2022-07-19T13:02:06;3.50;;;3.30;;
735;SDS011;352;48.626;9.238;2022-07-19T13:04:34;3.50;;;3.20;;
735;SDS011;352;48.626;9.238;2022-07-19T13:07:01;4.63;;;3.13;;
735;SDS011;352;48.626;9.238;2022-07-19T13:09:27;3.77;;;3.37;;
735;SDS011;352;48.626;9.238;2022-07-19T13:11:54;4.70;;;3.50;;
735;SDS011;352;48.626;9.238;2022-07-19T13:14:21;3.40;;;3.10;;
735;SDS011;352;48.626;9.238;2022-07-19T13:16:48;3.43;;;3.13;;
735;SDS011;352;48.626;9.238;2022-07-19T13:19:17;3.83;;;3.43;;
735;SDS011;352;48.626;9.238;2022-07-19T13:21:44;3.53;;;3.23;;
735;SDS011;352;48.626;9.238;2022-07-19T13:24:10;3.57;;;3.27;;
735;SDS011;352;48.626;9.238;2022-07-19T13:26:37;4.00;;;3.20;;
735;SDS011;352;48.626;9.238;2022-07-19T13:29:04;4.57;;;3.43;;
735;SDS011;352;48.626;9.238;2022-07-19T13:31:33;4.10;;;3.47;;
735;SDS011;352;48.626;9.238;2022-07-19T13:34:04;3.93;;;3.53;;
735;SDS011;352;48.626;9.238;2022-07-19T13:36:33;4.20;;;3.50;;
735;SDS011;352;48.626;9.238;2022-07-19T13:39:00;4.10;;;3.17;;
735;SDS011;352;48.626;9.238;2022-07-19T13:41:27;6.30;;;3.53;;
735;SDS011;352;48.626;9.238;2022-07-19T13:43:53;5.10;;;4.03;;
735;SDS011;352;48.626;9.238;2022-07-19T13:46:20;3.57;;;3.10;;
735;SDS011;352;48.626;9.238;2022-07-19T13:48:47;6.47;;;3.60;;
735;SDS011;352;48.626;9.238;2022-07-19T13:51:14;4.33;;;3.93;;
735;SDS011;352;48.626;9.238;2022-07-19T13:53:42;4.37;;;3.97;;
735;SDS011;352;48.626;9.238;2022-07-19T13:56:09;4.97;;;3.60;;
735;SDS011;352;48.626;9.238;2022-07-19T13:58:36;3.70;;;3.40;;
735;SDS011;352;48.626;9.238;2022-07-19T14:01:03;5.90;;;3.50;;
735;SDS011;352;48.626;9.238;2022-07-19T14:03:32;4.23;;;3.83;;
735;SDS011;352;48.626;9.238;2022-07-19T14:05:59;4.10;;;3.40;;
735;SDS011;352;48.626;9.238;2022-07-19T14:08:26;5.23;;;3.50;;
735;SDS011;352;48.626;9.238;2022-07-19T14:10:54;3.67;;;3.37;;
735;SDS011;352;48.626;9.238;2022-07-19T14:13:21;5.33;;;3.63;;
735;SDS011;352;48.626;9.238;2022-07-19T14:15:51;4.77;;;3.70;;
735;SDS011;352;48.626;9.238;2022-07-19T14:18:17;4.37;;;3.50;;
735;SDS011;352;48.626;9.238;2022-07-19T14:20:44;3.10;;;2.90;;
735;SDS011;352;48.626;9.238;2022-07-19T14:23:11;5.53;;;3.80;;
735;SDS011;352;48.626;9.238;2022-07-19T14:25:40;5.30;;;3.97;;
735;SDS011;352;48.626;9.238;2022-07-19T14:28:40;5.10;;;4.00;;
735;SDS011;352;48.626;9.238;2022-07-19T14:31:12;5.33;;;3.73;;
735;SDS011;352;48.626;9.238;2022-07-19T14:33:41;4.80;;;3.37;;
735;SDS011;352;48.626;9.238;2022-07-19T14:36:08;6.20;;;3.57;;
735;SDS011;352;48.626;9.238;2022-07-19T14:38:35;4.27;;;3.87;;
735;SDS011;352;48.626;9.238;2022-07-19T14:41:02;6.33;;;3.80;;
735;SDS011;352;48.626;9.238;2022-07-19T14:43:28;3.83;;;3.43;;
735;SDS011;352;48.626;9.238;2022-07-19T14:45:56;7.30;;;3.67;;
735;SDS011;352;48.626;9.238;2022-07-19T14:48:23;4.90;;;3.80;;
735;SDS011;352;48.626;9.238;2022-07-19T14:50:50;5.73;;;3.50;;
735;SDS011;352;48.626;9.238;2022-07-19T14:53:17;5.90;;;3.33;;
735;SDS011;352;48.626;9.238;2022-07-19T14:55:44;4.20;;;3.90;;
735;SDS011;352;48.626;9.238;2022-07-19T14:58:10;4.80;;;3.93;;
735;SDS011;352;48.626;9.238;2022-07-19T15:00:37;6.93;;;3.83;;
735;SDS011;352;48.626;9.238;2022-07-19T15:03:05;7.00;;;4.00;;
735;SDS011;352;48.626;9.238;2022-07-19T15:05:33;6.10;;;3.87;;
735;SDS011;352;48.626;9.238;2022-07-19T15:08:00;5.10;;;3.90;;
735;SDS011;352;48.626;9.238;2022-07-19T15:10:27;3.80;;;3.40;;
735;SDS011;352;48.626;9.238;2022-07-19T15:12:53;4.90;;;3.80;;
735;SDS011;352;48.626;9.238;2022-07-19T15:15:21;3.70;;;3.40;;
735;SDS011;352;48.626;9.238;2022-07-19T15:17:47;4.77;;;3.83;;
735;SDS011;352;48.626;9.238;2022-07-19T15:20:15;6.27;;;3.70;;
735;SDS011;352;48.626;9.238;2022-07-19T15:22:42;5.90;;;3.40;;
735;SDS011;352;48.626;9.238;2022-07-19T15:25:09;5.40;;;3.67;;
735;SDS011;352;48.626;9.238;2022-07-19T15:27:36;4.00;;;3.30;;
735;SDS011;352;48.626;9.238;2022-07-19T15:30:03;3.63;;;3.33;;
735;SDS011;352;48.626;9.238;2022-07-19T15:32:31;5.80;;;3.70;;
735;SDS011;352;48.626;9.238;2022-07-19T15:34:57;6.80;;;3.40;;
735;SDS011;352;48.626;9.238;2022-07-19T15:37:25;4.40;;;3.60;;
735;SDS011;352;48.626;9.238;2022-07-19T15:39:53;3.67;;;3.33;;
735;SDS011;352;48.626;9.238;2022-07-19T15:42:19;5.70;;;3.37;;
735;SDS011;352;48.626;9.238;2022-07-19T15:44:46;4.20;;;3.10;;
735;SDS011;352;48.626;9.238;2022-07-19T15:47:13;3.87;;;3.47;;
735;SDS011;352;48.626;9.238;2022-07-19T15:49:40;3.63;;;3.23;;
735;SDS011;352;48.626;9.238;2022-07-19T15:52:06;6.10;;;3.10;;
735;SDS011;352;48.626;9.238;2022-07-19T15:54:36;3.83;;;3.10;;
735;SDS011;352;48.626;9.238;2022-07-19T15:57:06;5.10;;;3.30;;